createdAt,value
2023-04-20T00:00:10.937Z,48.19
2023-04-20T00:02:40.006Z,48.16
2023-04-20T00:05:10.213Z,48.14
2023-04-20T00:07:41.592Z,48.23
2023-04-20T00:10:11.330Z,48.02
2023-04-20T00:12:39.703Z,48.11
2023-04-20T00:15:09.558Z,48.28
2023-04-20T00:17:39.601Z,48.25
2023-04-20T00:20:09.955Z,48.15
2023-04-20T00:22:39.878Z,48.14
2023-04-20T00:25:09.597Z,48.02
2023-04-20T00:27:38.035Z,47.84
2023-04-20T00:30:07.922Z,47.90
2023-04-20T00:32:36.402Z,47.82
2023-04-20T00:35:05.292Z,47.73
2023-04-20T00:37:33.691Z,47.67
2023-04-20T00:40:04.687Z,47.65
2023-04-20T00:42:32.995Z,47.73
2023-04-20T00:45:01.454Z,47.71
2023-04-20T00:47:29.906Z,47.68
2023-04-20T00:49:58.564Z,47.73
2023-04-20T00:52:27.076Z,47.66
2023-04-20T00:54:56.128Z,47.58
2023-04-20T00:57:26.903Z,47.46
2023-04-20T00:59:55.286Z,47.36
2023-04-20T01:02:23.922Z,47.37
2023-04-20T01:04:52.366Z,47.27
2023-04-20T01:07:20.791Z,47.30
2023-04-20T01:09:49.180Z,47.23
2023-04-20T01:12:17.600Z,47.08
2023-04-20T01:14:47.325Z,47.00
2023-04-20T01:17:15.832Z,46.87
2023-04-20T01:19:44.960Z,46.78
2023-04-20T01:22:18.612Z,46.88
2023-04-20T01:24:47.271Z,46.84
2023-04-20T01:27:17.149Z,46.81
2023-04-20T01:29:46.404Z,46.98
2023-04-20T01:32:15.080Z,46.79
2023-04-20T01:34:43.526Z,46.87
2023-04-20T01:37:11.934Z,46.81
2023-04-20T01:39:43.770Z,46.94
2023-04-20T01:42:12.255Z,46.82
2023-04-20T01:44:40.950Z,46.95
2023-04-20T01:47:09.372Z,46.81
2023-04-20T01:49:37.763Z,46.94
2023-04-20T01:52:06.659Z,46.90
2023-04-20T01:54:35.101Z,46.77
2023-04-20T01:57:04.979Z,46.87
2023-04-20T01:59:33.380Z,46.87
2023-04-20T02:02:01.870Z,46.75
2023-04-20T02:04:30.293Z,46.74
2023-04-20T02:06:58.696Z,46.68
2023-04-20T02:09:27.156Z,46.62
2023-04-20T02:11:56.542Z,46.77
2023-04-20T02:14:26.916Z,46.63
2023-04-20T02:16:55.384Z,46.68
2023-04-20T02:19:24.348Z,46.58
2023-04-20T02:21:52.725Z,46.86
2023-04-20T02:24:21.120Z,46.82
2023-04-20T02:26:49.634Z,46.74
2023-04-20T02:29:18.266Z,46.76
2023-04-20T02:31:48.202Z,46.83
2023-04-20T02:34:16.668Z,46.80
2023-04-20T02:36:45.109Z,46.65
2023-04-20T02:39:13.487Z,46.75
2023-04-20T02:41:41.986Z,46.85
2023-04-20T02:44:10.414Z,46.62
2023-04-20T02:46:38.798Z,46.74
2023-04-20T02:49:08.593Z,46.72
2023-04-20T02:51:36.970Z,46.71
2023-04-20T02:54:05.921Z,46.68
2023-04-20T02:56:34.310Z,46.92
2023-04-20T02:59:02.756Z,47.07
2023-04-20T03:01:31.276Z,47.07
2023-04-20T03:03:59.937Z,46.95
2023-04-20T03:06:29.848Z,46.87
2023-04-20T03:08:58.269Z,47.21
2023-04-20T03:11:26.625Z,47.22
2023-04-20T03:13:55.033Z,47.35
2023-04-20T03:16:23.452Z,47.27
2023-04-20T03:18:51.850Z,47.40
2023-04-20T03:21:20.700Z,47.26
2023-04-20T03:23:50.477Z,47.68
2023-04-20T03:26:18.923Z,47.46
2023-04-20T03:28:47.314Z,47.47
2023-04-20T03:31:15.686Z,47.57
2023-04-20T03:33:44.089Z,47.43
2023-04-20T03:36:13.321Z,47.45
2023-04-20T03:38:41.749Z,47.53
2023-04-20T03:41:11.570Z,47.52
2023-04-20T03:43:41.368Z,47.96
2023-04-20T03:46:09.865Z,47.99
2023-04-20T03:48:38.341Z,48.05
2023-04-20T03:51:07.117Z,48.24
2023-04-20T03:53:37.492Z,48.04
2023-04-20T03:56:07.808Z,48.18
2023-04-20T03:58:37.548Z,48.08
2023-04-20T04:01:08.723Z,48.28
2023-04-20T04:03:37.627Z,48.31
2023-04-20T04:06:07.385Z,48.43
2023-04-20T04:08:35.793Z,48.87
2023-04-20T04:11:04.165Z,48.66
2023-04-20T04:13:34.720Z,48.67
2023-04-20T04:16:05.122Z,48.71
2023-04-20T04:18:33.630Z,48.68
2023-04-20T04:21:02.033Z,48.68
2023-04-20T04:23:30.948Z,49.17
2023-04-20T04:25:59.342Z,48.68
2023-04-20T04:28:27.724Z,48.89
2023-04-20T04:30:56.093Z,48.76
2023-04-20T04:33:26.324Z,48.60
2023-04-20T04:35:55.443Z,48.77
2023-04-20T04:38:23.890Z,48.82
2023-04-20T04:40:52.476Z,48.47
2023-04-20T04:43:21.032Z,48.25
2023-04-20T04:45:49.925Z,48.58
2023-04-20T04:48:19.141Z,48.49
2023-04-20T04:50:48.983Z,48.44
2023-04-20T04:53:17.601Z,48.31
2023-04-20T04:55:46.598Z,48.48
2023-04-20T04:58:15.007Z,48.09
2023-04-20T05:00:43.689Z,48.30
2023-04-20T05:03:12.155Z,48.13
2023-04-20T05:05:40.552Z,48.11
2023-04-20T05:08:10.367Z,48.07
2023-04-20T05:10:38.949Z,47.94
2023-04-20T05:13:07.283Z,48.13
2023-04-20T05:15:35.902Z,48.11
2023-04-20T05:18:04.393Z,48.03
2023-04-20T05:20:32.743Z,47.99
2023-04-20T05:23:01.125Z,47.84
2023-04-20T05:25:32.682Z,47.87
2023-04-20T05:28:01.112Z,47.68
2023-04-20T05:30:29.461Z,47.61
2023-04-20T05:32:57.875Z,47.53
2023-04-20T05:35:26.370Z,47.71
2023-04-20T05:37:54.768Z,47.54
2023-04-20T05:40:25.525Z,47.35
2023-04-20T05:42:55.603Z,47.00
2023-04-20T05:45:24.122Z,46.96
2023-04-20T05:47:55.946Z,46.99
2023-04-20T05:50:25.031Z,47.05
2023-04-20T05:52:53.500Z,46.87
2023-04-20T05:55:23.025Z,46.72
2023-04-20T05:57:54.377Z,46.88
2023-04-20T06:00:25.955Z,46.89
2023-04-20T06:02:55.652Z,46.78
2023-04-20T06:05:24.312Z,46.71
2023-04-20T06:07:53.124Z,46.56
2023-04-20T06:10:22.019Z,46.47
2023-04-20T06:12:50.767Z,46.51
2023-04-20T06:15:20.757Z,46.58
2023-04-20T06:17:49.216Z,46.37
2023-04-20T06:20:17.988Z,46.54
2023-04-20T06:22:47.159Z,46.47
2023-04-20T06:25:16.428Z,46.56
2023-04-20T06:27:44.870Z,46.36
2023-04-20T06:30:14.848Z,46.74
2023-04-20T06:32:44.690Z,46.50
2023-04-20T06:35:13.166Z,46.50
2023-04-20T06:37:41.555Z,46.62
2023-04-20T06:40:10.792Z,46.55
2023-04-20T06:42:39.256Z,46.27
2023-04-20T06:45:09.466Z,46.15
2023-04-20T06:47:38.366Z,45.96
2023-04-20T06:50:10.908Z,45.81
2023-04-20T06:52:40.783Z,45.66
2023-04-20T06:55:10.552Z,45.66
2023-04-20T06:57:39.728Z,45.70
2023-04-20T07:00:13.264Z,45.58
2023-04-20T07:02:46.989Z,45.37
2023-04-20T07:05:17.554Z,45.29
2023-04-20T07:07:46.903Z,45.03
2023-04-20T07:10:17.108Z,45.29
2023-04-20T07:12:45.870Z,45.15
2023-04-20T07:15:14.718Z,45.09
2023-04-20T07:17:43.157Z,45.06
2023-04-20T07:20:12.253Z,44.78
2023-04-20T07:22:42.008Z,44.65
2023-04-20T07:25:12.296Z,44.49
2023-04-20T07:27:42.420Z,44.24
2023-04-20T07:30:12.298Z,44.13
2023-04-20T07:32:42.457Z,43.97
2023-04-20T07:35:11.895Z,43.46
2023-04-20T07:37:41.735Z,43.31
2023-04-20T07:40:11.852Z,43.23
2023-04-20T07:42:40.423Z,43.52
2023-04-20T07:45:11.571Z,43.32
2023-04-20T07:47:40.535Z,42.89
2023-04-20T07:50:10.194Z,42.82
2023-04-20T07:52:38.679Z,42.76
2023-04-20T07:55:12.011Z,42.34
2023-04-20T07:57:40.675Z,42.31
2023-04-20T08:00:11.639Z,42.48
2023-04-20T08:02:40.223Z,42.28
2023-04-20T08:05:10.212Z,42.14
2023-04-20T08:07:39.160Z,42.45
2023-04-20T08:10:11.163Z,42.30
2023-04-20T08:12:40.745Z,42.04
2023-04-20T08:15:11.354Z,41.56
2023-04-20T08:17:39.772Z,41.33
2023-04-20T08:20:10.698Z,40.94
2023-04-20T08:22:40.120Z,40.63
2023-04-20T08:25:11.335Z,39.48
2023-04-20T08:27:39.753Z,39.40
2023-04-20T08:30:09.887Z,39.37
2023-04-20T08:32:38.390Z,39.66
2023-04-20T08:35:07.613Z,39.52
2023-04-20T08:37:37.552Z,39.35
2023-04-20T08:40:07.422Z,39.44
2023-04-20T08:42:37.645Z,39.62
2023-04-20T08:45:07.541Z,39.40
2023-04-20T08:47:36.873Z,39.31
2023-04-20T08:50:07.832Z,38.95
2023-04-20T08:52:38.706Z,39.21
2023-04-20T08:55:09.452Z,38.79
2023-04-20T08:57:39.285Z,38.95
2023-04-20T09:00:13.618Z,38.16
2023-04-20T09:02:51.757Z,38.05
2023-04-20T09:05:28.371Z,37.73
2023-04-20T09:08:01.244Z,37.09
2023-04-20T09:10:42.257Z,37.02
2023-04-20T09:13:23.495Z,36.54
2023-04-20T09:15:52.009Z,36.71
2023-04-20T09:18:20.711Z,36.88
2023-04-20T09:20:49.124Z,36.71
2023-04-20T09:23:19.676Z,36.59
2023-04-20T09:25:53.130Z,36.59
2023-04-20T09:28:23.126Z,36.97
2023-04-20T09:30:51.849Z,36.92
2023-04-20T09:33:20.424Z,36.46
2023-04-20T09:35:48.867Z,36.85
2023-04-20T09:38:18.546Z,37.18
2023-04-20T09:40:47.031Z,37.43
2023-04-20T09:43:20.550Z,37.58
2023-04-20T09:45:50.720Z,37.79
2023-04-20T09:48:20.956Z,38.04
2023-04-20T09:50:51.735Z,37.76
2023-04-20T09:53:20.960Z,37.94
2023-04-20T09:55:51.339Z,37.73
2023-04-20T09:58:20.986Z,37.43
2023-04-20T10:00:53.044Z,37.45
2023-04-20T10:03:22.431Z,37.26
2023-04-20T10:05:52.925Z,37.39
2023-04-20T10:08:22.136Z,37.36
2023-04-20T10:10:52.370Z,37.13
2023-04-20T10:13:22.007Z,37.26
2023-04-20T10:15:51.918Z,37.47
2023-04-20T10:18:23.794Z,37.22
2023-04-20T10:20:53.204Z,37.09
2023-04-20T10:23:21.641Z,37.29
2023-04-20T10:26:01.156Z,37.23
2023-04-20T10:28:40.782Z,37.13
2023-04-20T10:31:13.719Z,36.69
2023-04-20T10:33:56.115Z,36.91
2023-04-20T10:36:29.955Z,36.98
2023-04-20T10:38:58.938Z,36.54
2023-04-20T10:41:27.402Z,36.68
2023-04-20T10:43:55.843Z,36.20
2023-04-20T10:46:26.534Z,36.08
2023-04-20T10:49:01.822Z,35.78
2023-04-20T10:51:30.885Z,35.21
2023-04-20T10:54:06.209Z,34.95
2023-04-20T10:56:42.555Z,34.58
2023-04-20T10:59:13.736Z,34.32
2023-04-20T11:01:44.534Z,33.96
2023-04-20T11:04:15.562Z,33.40
2023-04-20T11:06:48.823Z,33.48
2023-04-20T11:09:22.876Z,33.16
2023-04-20T11:12:02.042Z,32.23
2023-04-20T11:14:31.192Z,31.75
2023-04-20T11:17:01.869Z,31.16
2023-04-20T11:19:33.124Z,30.48
2023-04-20T11:22:02.642Z,30.04
2023-04-20T11:24:34.122Z,29.96
2023-04-20T11:27:04.970Z,29.14
2023-04-20T11:29:36.204Z,29.16
2023-04-20T11:32:09.220Z,28.77
2023-04-20T11:34:40.216Z,28.47
2023-04-20T11:37:10.982Z,27.32
2023-04-20T11:39:39.883Z,27.24
2023-04-20T11:42:08.365Z,26.63
2023-04-20T11:44:37.284Z,26.26
2023-04-20T11:47:08.017Z,26.27
2023-04-20T11:49:36.563Z,25.83
2023-04-20T11:52:05.275Z,24.92
2023-04-20T11:54:35.129Z,25.06
2023-04-20T11:57:04.408Z,24.15
2023-04-20T11:59:33.175Z,23.92
2023-04-20T12:02:04.269Z,24.02
2023-04-20T12:04:34.959Z,23.39
2023-04-20T12:07:03.596Z,22.66
2023-04-20T12:09:36.249Z,22.32
2023-04-20T12:12:04.973Z,22.02
2023-04-20T12:14:34.613Z,22.05
2023-04-20T12:17:03.981Z,22.00
2023-04-20T12:19:34.115Z,21.28
2023-04-20T12:22:02.522Z,20.67
2023-04-20T12:24:30.928Z,20.39
2023-04-20T12:26:59.565Z,20.23
2023-04-20T12:29:28.084Z,20.17
2023-04-20T12:31:56.668Z,19.60
2023-04-20T12:34:25.205Z,19.66
2023-04-20T12:36:54.955Z,19.63
2023-04-20T12:39:23.357Z,19.80
2023-04-20T12:41:51.968Z,19.04
2023-04-20T12:44:20.706Z,18.84
2023-04-20T12:46:50.011Z,18.86
2023-04-20T12:49:18.753Z,18.67
2023-04-20T12:51:47.348Z,18.74
2023-04-20T12:54:17.821Z,19.03
2023-04-20T12:56:46.423Z,18.79
2023-04-20T12:59:14.859Z,18.80
2023-04-20T13:01:43.259Z,18.55
2023-04-20T13:04:12.045Z,18.82
2023-04-20T13:06:42.805Z,18.24
2023-04-20T13:09:11.594Z,17.95
2023-04-20T13:11:41.446Z,18.16
2023-04-20T13:14:09.836Z,17.63
2023-04-20T13:16:38.347Z,17.90
2023-04-20T13:19:06.836Z,17.17
2023-04-20T13:21:35.292Z,16.94
2023-04-20T13:24:03.687Z,16.25
2023-04-20T13:26:32.103Z,16.07
2023-04-20T13:29:01.957Z,15.78
2023-04-20T13:31:31.275Z,15.71
2023-04-20T13:33:59.756Z,15.30
2023-04-20T13:36:29.475Z,15.59
2023-04-20T13:38:58.065Z,15.63
2023-04-20T13:41:26.559Z,14.78
2023-04-20T13:43:55.073Z,14.79
2023-04-20T13:46:25.017Z,14.14
2023-04-20T13:48:53.570Z,13.74
2023-04-20T13:51:22.142Z,14.07
2023-04-20T13:53:50.721Z,14.23
2023-04-20T13:56:19.618Z,14.07
2023-04-20T13:58:48.019Z,14.85
2023-04-20T14:01:17.500Z,14.30
2023-04-20T14:03:47.452Z,14.07
2023-04-20T14:06:15.986Z,13.99
2023-04-20T14:08:44.492Z,14.56
2023-04-20T14:11:12.955Z,14.82
2023-04-20T14:13:41.957Z,15.25
2023-04-20T14:16:11.558Z,15.65
2023-04-20T14:18:40.239Z,16.17
2023-04-20T14:21:10.062Z,16.38
2023-04-20T14:23:38.474Z,17.20
2023-04-20T14:26:07.433Z,16.98
2023-04-20T14:28:35.964Z,17.31
2023-04-20T14:31:04.777Z,17.42
2023-04-20T14:33:33.149Z,17.51
2023-04-20T14:36:01.526Z,17.63
2023-04-20T14:38:31.397Z,18.09
2023-04-20T14:41:00.883Z,18.32
2023-04-20T14:43:29.290Z,18.79
2023-04-20T14:45:58.857Z,19.43
2023-04-20T14:48:27.414Z,19.77
2023-04-20T14:50:55.880Z,20.48
2023-04-20T14:53:24.622Z,20.50
2023-04-20T14:55:54.465Z,20.96
2023-04-20T14:58:23.002Z,21.26
2023-04-20T15:00:51.709Z,21.36
2023-04-20T15:03:20.354Z,21.85
2023-04-20T15:05:49.078Z,21.63
2023-04-20T15:08:17.627Z,22.20
2023-04-20T15:10:46.179Z,21.92
2023-04-20T15:13:16.016Z,22.66
2023-04-20T15:15:48.956Z,22.46
2023-04-20T15:18:18.883Z,22.98
2023-04-20T15:20:47.798Z,23.41
2023-04-20T15:23:16.465Z,22.95
2023-04-20T15:25:45.095Z,23.73
2023-04-20T15:28:14.879Z,23.63
2023-04-20T15:30:44.312Z,23.78
2023-04-20T15:33:12.768Z,23.94
2023-04-20T15:35:41.421Z,24.39
2023-04-20T15:38:09.969Z,24.87
2023-04-20T15:40:39.301Z,24.88
2023-04-20T15:43:08.101Z,24.98
2023-04-20T15:45:38.040Z,25.24
2023-04-20T15:48:06.615Z,25.39
2023-04-20T15:50:35.565Z,25.60
2023-04-20T15:53:04.482Z,25.60
2023-04-20T15:55:35.652Z,25.71
2023-04-20T15:58:04.142Z,25.66
2023-04-20T16:00:32.548Z,25.85
2023-04-20T16:03:02.525Z,25.86
2023-04-20T16:05:31.284Z,25.77
2023-04-20T16:07:59.732Z,26.12
2023-04-20T16:10:28.626Z,26.31
2023-04-20T16:12:57.805Z,26.40
2023-04-20T16:15:26.467Z,26.53
2023-04-20T16:17:56.759Z,26.56
2023-04-20T16:20:26.647Z,26.68
2023-04-20T16:22:55.041Z,26.79
2023-04-20T16:25:24.219Z,27.01
2023-04-20T16:27:52.911Z,27.19
2023-04-20T16:30:21.838Z,27.30
2023-04-20T16:32:50.553Z,27.34
2023-04-20T16:35:19.006Z,27.37
2023-04-20T16:37:48.798Z,28.00
2023-04-20T16:40:18.299Z,27.80
2023-04-20T16:42:46.740Z,28.19
2023-04-20T16:45:16.674Z,28.39
2023-04-20T16:47:45.111Z,28.59
2023-04-20T16:50:19.415Z,28.69
2023-04-20T16:52:50.556Z,29.14
2023-04-20T16:55:19.190Z,29.28
2023-04-20T16:57:47.627Z,29.33
2023-04-20T17:00:17.710Z,29.31
2023-04-20T17:02:46.254Z,29.43
2023-04-20T17:05:14.712Z,29.52
2023-04-20T17:07:43.154Z,29.65
2023-04-20T17:10:13.507Z,29.86
2023-04-20T17:12:42.099Z,30.09
2023-04-20T17:15:12.283Z,30.12
2023-04-20T17:17:40.875Z,30.12
2023-04-20T17:20:11.021Z,30.76
2023-04-20T17:22:39.629Z,30.57
2023-04-20T17:25:09.763Z,31.02
2023-04-20T17:27:39.695Z,30.88
2023-04-20T17:30:09.991Z,31.07
2023-04-20T17:32:38.467Z,31.16
2023-04-20T17:35:08.276Z,31.16
2023-04-20T17:37:37.499Z,31.27
2023-04-20T17:40:08.244Z,31.41
2023-04-20T17:42:38.449Z,32.09
2023-04-20T17:45:09.329Z,31.82
2023-04-20T17:47:37.844Z,31.99
2023-04-20T17:50:08.319Z,32.06
2023-04-20T17:52:37.546Z,32.15
2023-04-20T17:55:07.334Z,32.56
2023-04-20T17:57:36.133Z,32.43
2023-04-20T18:00:09.087Z,32.50
2023-04-20T18:02:37.812Z,32.60
2023-04-20T18:05:07.778Z,32.99
2023-04-20T18:07:36.698Z,33.15
2023-04-20T18:10:06.147Z,33.36
2023-04-20T18:12:35.605Z,33.42
2023-04-20T18:15:08.294Z,33.52
2023-04-20T18:17:37.465Z,33.49
2023-04-20T18:20:08.997Z,33.82
2023-04-20T18:22:38.508Z,33.82
2023-04-20T18:25:12.408Z,34.02
2023-04-20T18:27:41.474Z,34.11
2023-04-20T18:30:14.120Z,34.21
2023-04-20T18:32:43.382Z,34.21
2023-04-20T18:35:13.653Z,34.34
2023-04-20T18:37:42.595Z,34.50
2023-04-20T18:40:15.512Z,34.71
2023-04-20T18:42:45.675Z,34.65
2023-04-20T18:45:17.334Z,34.87
2023-04-20T18:47:47.830Z,34.88
2023-04-20T18:50:16.831Z,35.05
2023-04-20T18:52:46.969Z,35.13
2023-04-20T18:55:16.847Z,35.25
2023-04-20T18:57:49.884Z,35.32
2023-04-20T19:00:22.161Z,35.41
2023-04-20T19:02:51.709Z,35.53
2023-04-20T19:05:21.620Z,35.42
2023-04-20T19:07:51.697Z,35.58
2023-04-20T19:10:20.515Z,35.73
2023-04-20T19:12:49.752Z,35.48
2023-04-20T19:15:25.950Z,35.94
2023-04-20T19:17:57.155Z,36.02
2023-04-20T19:20:29.313Z,36.04
2023-04-20T19:22:58.466Z,36.12
2023-04-20T19:25:27.788Z,36.40
2023-04-20T19:27:56.883Z,36.43
2023-04-20T19:30:27.716Z,36.58
2023-04-20T19:32:57.016Z,36.72
2023-04-20T19:35:26.376Z,36.94
2023-04-20T19:37:55.529Z,36.82
2023-04-20T19:40:30.396Z,36.97
2023-04-20T19:42:59.437Z,37.05
2023-04-20T19:45:34.046Z,37.17
2023-04-20T19:48:03.312Z,37.38
2023-04-20T19:50:34.735Z,37.78
2023-04-20T19:53:04.383Z,38.07
2023-04-20T19:55:34.468Z,38.26
2023-04-20T19:58:04.602Z,38.45
2023-04-20T20:00:34.456Z,38.60
2023-04-20T20:03:06.859Z,38.50
2023-04-20T20:05:36.293Z,38.63
2023-04-20T20:08:05.119Z,38.85
2023-04-20T20:10:35.071Z,39.23
2023-04-20T20:13:04.199Z,39.35
2023-04-20T20:15:35.083Z,39.33
2023-04-20T20:18:03.782Z,39.44
2023-04-20T20:20:32.455Z,39.67
2023-04-20T20:23:01.954Z,39.73
2023-04-20T20:25:30.425Z,39.79
2023-04-20T20:27:59.016Z,39.96
2023-04-20T20:30:27.385Z,39.79
2023-04-20T20:32:59.178Z,40.07
2023-04-20T20:35:31.513Z,40.22
2023-04-20T20:38:00.350Z,40.34
2023-04-20T20:40:28.902Z,40.36
2023-04-20T20:42:58.609Z,40.56
2023-04-20T20:45:27.933Z,40.46
2023-04-20T20:47:58.007Z,40.33
2023-04-20T20:50:28.005Z,40.76
2023-04-20T20:52:56.507Z,40.91
2023-04-20T20:55:25.573Z,41.21
2023-04-20T20:57:53.886Z,41.05
2023-04-20T21:00:22.462Z,41.03
2023-04-20T21:02:50.985Z,41.13
2023-04-20T21:05:22.997Z,41.34
2023-04-20T21:07:51.552Z,41.42
2023-04-20T21:10:19.968Z,41.20
2023-04-20T21:12:48.326Z,41.57
2023-04-20T21:15:16.967Z,41.44
2023-04-20T21:17:45.423Z,41.51
2023-04-20T21:20:14.601Z,41.51
2023-04-20T21:22:44.435Z,41.68
2023-04-20T21:25:12.858Z,41.64
2023-04-20T21:27:41.343Z,41.89
2023-04-20T21:30:11.931Z,41.97
2023-04-20T21:32:40.377Z,41.66
2023-04-20T21:35:10.371Z,42.18
2023-04-20T21:37:38.987Z,42.05
2023-04-20T21:40:11.345Z,42.35
2023-04-20T21:42:39.738Z,42.23
2023-04-20T21:45:09.856Z,42.62
2023-04-20T21:47:38.287Z,42.38
2023-04-20T21:50:08.038Z,42.64
2023-04-20T21:52:36.496Z,42.50
2023-04-20T21:55:05.222Z,42.51
2023-04-20T21:57:34.959Z,42.49
2023-04-20T22:00:04.251Z,42.63
2023-04-20T22:02:32.778Z,42.75
2023-04-20T22:05:01.262Z,42.60
2023-04-20T22:07:30.365Z,42.82
2023-04-20T22:09:58.725Z,42.93
2023-04-20T22:12:38.190Z,42.72
2023-04-20T22:15:13.554Z,43.01
2023-04-20T22:17:45.375Z,42.87
2023-04-20T22:20:17.015Z,43.06
2023-04-20T22:22:45.417Z,43.17
2023-04-20T22:25:14.361Z,43.37
2023-04-20T22:27:42.656Z,43.71
2023-04-20T22:30:13.612Z,44.06
2023-04-20T22:32:42.005Z,43.96
2023-04-20T22:35:11.009Z,43.69
2023-04-20T22:37:39.407Z,43.77
2023-04-20T22:40:10.025Z,43.92
2023-04-20T22:42:38.482Z,44.08
2023-04-20T22:45:10.895Z,44.01
2023-04-20T22:47:41.534Z,44.18
2023-04-20T22:50:12.052Z,44.03
2023-04-20T22:52:40.735Z,44.17
2023-04-20T22:55:11.656Z,44.26
2023-04-20T22:57:40.053Z,44.18
2023-04-20T23:00:11.077Z,44.18
2023-04-20T23:02:41.380Z,44.26
2023-04-20T23:05:11.108Z,44.36
2023-04-20T23:07:39.845Z,44.29
2023-04-20T23:10:10.939Z,44.38
2023-04-20T23:12:39.466Z,44.58
2023-04-20T23:15:09.846Z,44.61
2023-04-20T23:17:38.353Z,44.61
2023-04-20T23:20:13.814Z,44.49
2023-04-20T23:22:42.578Z,44.51
2023-04-20T23:25:11.544Z,44.68
2023-04-20T23:27:39.965Z,44.76
2023-04-20T23:30:10.228Z,44.83
2023-04-20T23:32:38.618Z,44.97
2023-04-20T23:35:09.741Z,45.11
2023-04-20T23:37:38.161Z,45.23
2023-04-20T23:40:10.156Z,45.30
2023-04-20T23:42:38.694Z,45.27
2023-04-20T23:45:09.100Z,45.30
2023-04-20T23:47:37.529Z,45.20
2023-04-20T23:50:09.578Z,45.25
2023-04-20T23:52:40.638Z,45.12
2023-04-20T23:55:10.660Z,45.19
2023-04-20T23:57:39.094Z,45.08
